createdAt,value
2018-08-16T00:00:12.743Z,20.83
2018-08-16T00:01:12.732Z,20.77
2018-08-16T00:02:12.719Z,20.73
2018-08-16T00:03:12.709Z,20.88
2018-08-16T00:04:12.705Z,20.80
2018-08-16T00:05:12.692Z,20.93
2018-08-16T00:06:12.675Z,20.92
2018-08-16T00:07:12.665Z,20.93
2018-08-16T00:08:12.654Z,20.93
2018-08-16T00:09:12.640Z,20.97
2018-08-16T00:10:12.628Z,21.00
2018-08-16T00:11:12.620Z,20.89
2018-08-16T00:12:12.609Z,20.80
2018-08-16T00:13:12.596Z,20.85
2018-08-16T00:14:12.582Z,20.75
2018-08-16T00:15:12.571Z,20.75
2018-08-16T00:16:12.558Z,20.80
2018-08-16T00:17:12.552Z,20.68
2018-08-16T00:18:12.545Z,20.79
2018-08-16T00:19:12.532Z,20.86
2018-08-16T00:20:12.514Z,20.77
2018-08-16T00:21:12.506Z,20.70
2018-08-16T00:22:12.491Z,20.83
2018-08-16T00:23:12.482Z,20.82
2018-08-16T00:24:12.472Z,20.95
2018-08-16T00:25:12.454Z,20.89
2018-08-16T00:26:12.443Z,20.92
2018-08-16T00:27:12.437Z,20.82
2018-08-16T00:28:12.423Z,20.79
2018-08-16T00:29:12.415Z,20.74
2018-08-16T00:30:12.400Z,20.80
2018-08-16T00:31:12.387Z,20.77
2018-08-16T00:32:12.379Z,20.77
2018-08-16T00:33:12.364Z,20.80
2018-08-16T00:34:12.354Z,20.80
2018-08-16T00:35:12.339Z,20.74
2018-08-16T00:36:12.331Z,20.77
2018-08-16T00:37:12.318Z,20.82
2018-08-16T00:38:12.318Z,20.83
2018-08-16T00:39:12.294Z,20.86
2018-08-16T00:40:12.288Z,20.89
2018-08-16T00:41:12.272Z,20.80
2018-08-16T00:42:12.263Z,20.88
2018-08-16T00:43:12.249Z,20.73
2018-08-16T00:44:12.239Z,20.82
2018-08-16T00:45:12.230Z,20.74
2018-08-16T00:46:12.218Z,20.74
2018-08-16T00:47:12.212Z,20.79
2018-08-16T00:48:12.196Z,20.70
2018-08-16T00:49:12.195Z,20.64
2018-08-16T00:50:12.170Z,20.74
2018-08-16T00:51:12.160Z,20.67
2018-08-16T00:52:12.161Z,20.73
2018-08-16T00:53:12.137Z,20.74
2018-08-16T00:54:12.125Z,20.58
2018-08-16T00:55:12.111Z,20.52
2018-08-16T00:56:12.101Z,20.34
2018-08-16T00:57:12.088Z,20.36
2018-08-16T00:58:12.080Z,20.34
2018-08-16T00:59:12.075Z,20.48
2018-08-16T01:00:12.053Z,20.46
2018-08-16T01:01:12.042Z,20.52
2018-08-16T01:02:12.034Z,20.50
2018-08-16T01:03:12.019Z,20.60
2018-08-16T01:04:12.007Z,20.53
2018-08-16T01:05:12.000Z,20.60
2018-08-16T01:06:11.983Z,20.61
2018-08-16T01:07:11.975Z,20.58
2018-08-16T01:08:11.962Z,20.56
2018-08-16T01:09:11.949Z,20.56
2018-08-16T01:10:11.936Z,20.53
2018-08-16T01:11:11.926Z,20.50
2018-08-16T01:12:11.912Z,20.56
2018-08-16T01:13:11.905Z,20.46
2018-08-16T01:14:11.906Z,20.32
2018-08-16T01:15:11.880Z,20.33
2018-08-16T01:16:11.867Z,20.36
2018-08-16T01:17:11.856Z,20.39
2018-08-16T01:18:11.843Z,20.34
2018-08-16T01:19:11.836Z,20.39
2018-08-16T01:20:11.852Z,20.32
2018-08-16T01:21:11.807Z,20.36
2018-08-16T01:22:11.803Z,20.36
2018-08-16T01:23:11.789Z,20.42
2018-08-16T01:24:11.773Z,20.39
2018-08-16T01:25:11.765Z,20.37
2018-08-16T01:26:11.754Z,20.46
2018-08-16T01:27:11.741Z,20.36
2018-08-16T01:28:11.731Z,20.33
2018-08-16T01:29:11.717Z,20.27
2018-08-16T01:30:11.707Z,20.25
2018-08-16T01:31:11.688Z,20.22
2018-08-16T01:32:11.678Z,20.18
2018-08-16T01:33:11.684Z,20.18
2018-08-16T01:34:11.663Z,20.12
2018-08-16T01:35:11.641Z,20.09
2018-08-16T01:36:11.632Z,20.17
2018-08-16T01:37:11.620Z,20.19
2018-08-16T01:38:11.608Z,20.19
2018-08-16T01:39:11.597Z,20.22
2018-08-16T01:40:11.586Z,20.11
2018-08-16T01:41:11.577Z,20.08
2018-08-16T01:42:11.560Z,20.05
2018-08-16T01:43:11.551Z,19.96
2018-08-16T01:44:11.539Z,19.97
2018-08-16T01:45:11.529Z,19.93
2018-08-16T01:46:11.522Z,20.02
2018-08-16T01:47:11.505Z,20.00
2018-08-16T01:48:11.490Z,20.11
2018-08-16T01:49:11.477Z,20.08
2018-08-16T01:50:11.465Z,19.94
2018-08-16T01:51:11.452Z,19.84
2018-08-16T01:52:11.446Z,19.74
2018-08-16T01:53:11.431Z,19.63
2018-08-16T01:54:11.418Z,19.62
2018-08-16T01:55:11.408Z,19.57
2018-08-16T01:56:11.395Z,19.64
2018-08-16T01:57:11.383Z,19.64
2018-08-16T01:58:11.369Z,19.75
2018-08-16T01:59:11.366Z,19.79
2018-08-16T02:00:11.345Z,19.81
2018-08-16T02:01:11.334Z,19.81
2018-08-16T02:02:11.323Z,19.82
2018-08-16T02:03:11.309Z,19.75
2018-08-16T02:04:11.297Z,19.78
2018-08-16T02:05:11.349Z,19.81
2018-08-16T02:06:11.274Z,19.77
2018-08-16T02:07:11.261Z,19.72
2018-08-16T02:08:11.251Z,19.63
2018-08-16T02:09:11.240Z,19.64
2018-08-16T02:10:11.226Z,19.64
2018-08-16T02:11:11.216Z,19.59
2018-08-16T02:12:11.204Z,19.49
2018-08-16T02:13:11.190Z,19.39
2018-08-16T02:14:11.182Z,19.39
2018-08-16T02:15:11.166Z,19.35
2018-08-16T02:16:11.157Z,19.32
2018-08-16T02:17:11.142Z,19.30
2018-08-16T02:18:11.130Z,19.19
2018-08-16T02:19:11.127Z,19.15
2018-08-16T02:20:11.110Z,19.16
2018-08-16T02:21:11.105Z,19.08
2018-08-16T02:22:11.082Z,19.05
2018-08-16T02:23:11.069Z,18.96
2018-08-16T02:24:11.057Z,18.82
2018-08-16T02:25:11.045Z,18.82
2018-08-16T02:26:11.032Z,18.75
2018-08-16T02:27:11.020Z,18.83
2018-08-16T02:28:11.012Z,18.83
2018-08-16T02:29:11.002Z,18.81
2018-08-16T02:30:10.985Z,18.81
2018-08-16T02:31:10.972Z,18.91
2018-08-16T02:32:10.963Z,18.93
2018-08-16T02:33:10.947Z,18.97
2018-08-16T02:34:10.935Z,18.93
2018-08-16T02:35:10.925Z,19.13
2018-08-16T02:36:10.911Z,19.09
2018-08-16T02:37:10.900Z,19.16
2018-08-16T02:38:10.884Z,19.13
2018-08-16T02:39:10.873Z,19.09
2018-08-16T02:40:10.869Z,18.96
2018-08-16T02:41:10.853Z,18.94
2018-08-16T02:42:10.836Z,18.94
2018-08-16T02:43:10.824Z,18.97
2018-08-16T02:44:10.815Z,18.97
2018-08-16T02:45:10.800Z,18.93
2018-08-16T02:46:10.789Z,18.89
2018-08-16T02:47:10.777Z,18.93
2018-08-16T02:48:10.773Z,18.94
2018-08-16T02:49:10.750Z,18.96
2018-08-16T02:50:10.736Z,19.00
2018-08-16T02:51:10.725Z,19.00
2018-08-16T02:52:10.715Z,18.97
2018-08-16T02:53:10.704Z,18.96
2018-08-16T02:54:10.699Z,18.93
2018-08-16T02:55:10.674Z,18.96
2018-08-16T02:56:10.662Z,18.98
2018-08-16T02:57:10.652Z,19.04
2018-08-16T02:58:10.639Z,19.08
2018-08-16T02:59:10.627Z,19.05
2018-08-16T03:00:10.614Z,19.12
2018-08-16T03:01:10.604Z,19.15
2018-08-16T03:02:10.587Z,19.19
2018-08-16T03:03:10.575Z,19.09
2018-08-16T03:04:10.562Z,19.12
2018-08-16T03:05:10.561Z,19.15
2018-08-16T03:06:10.620Z,19.16
2018-08-16T03:07:10.528Z,19.22
2018-08-16T03:08:10.512Z,19.15
2018-08-16T03:09:10.500Z,18.91
2018-08-16T03:10:10.491Z,19.01
2018-08-16T03:11:10.472Z,18.96
2018-08-16T03:12:10.473Z,19.00
2018-08-16T03:13:10.457Z,18.93
2018-08-16T03:14:10.435Z,18.89
2018-08-16T03:15:10.428Z,18.79
2018-08-16T03:16:10.411Z,18.70
2018-08-16T03:17:10.404Z,18.58
2018-08-16T03:18:10.387Z,18.56
2018-08-16T03:19:10.374Z,18.52
2018-08-16T03:20:10.363Z,18.41
2018-08-16T03:21:10.363Z,18.41
2018-08-16T03:22:10.336Z,18.36
2018-08-16T03:23:10.324Z,18.36
2018-08-16T03:24:10.312Z,18.46
2018-08-16T03:25:10.300Z,18.38
2018-08-16T03:26:10.289Z,18.31
2018-08-16T03:27:10.277Z,18.38
2018-08-16T03:28:10.262Z,18.34
2018-08-16T03:29:10.249Z,18.41
2018-08-16T03:30:10.235Z,18.36
2018-08-16T03:31:10.224Z,18.27
2018-08-16T03:32:10.223Z,18.31
2018-08-16T03:33:10.198Z,18.23
2018-08-16T03:34:10.188Z,18.20
2018-08-16T03:35:10.178Z,18.23
2018-08-16T03:36:10.159Z,18.26
2018-08-16T03:37:10.150Z,18.20
2018-08-16T03:38:10.137Z,18.08
2018-08-16T03:39:10.120Z,18.21
2018-08-16T03:40:10.109Z,18.23
2018-08-16T03:41:10.099Z,18.21
2018-08-16T03:42:10.083Z,18.24
2018-08-16T03:43:10.074Z,18.23
2018-08-16T03:44:10.060Z,18.21
2018-08-16T03:45:10.046Z,18.26
2018-08-16T03:46:10.032Z,18.28
2018-08-16T03:47:10.018Z,18.28
2018-08-16T03:48:10.033Z,18.34
2018-08-16T03:49:09.993Z,18.30
2018-08-16T03:50:09.980Z,18.36
2018-08-16T03:51:09.971Z,18.38
2018-08-16T03:52:09.968Z,18.41
2018-08-16T03:53:09.941Z,18.42
2018-08-16T03:54:09.927Z,18.28
2018-08-16T03:55:09.918Z,18.34
2018-08-16T03:56:09.904Z,18.39
2018-08-16T03:57:09.891Z,18.41
2018-08-16T03:58:09.878Z,18.45
2018-08-16T03:59:09.863Z,18.41
2018-08-16T04:00:09.854Z,18.41
2018-08-16T04:01:09.843Z,18.39
2018-08-16T04:02:09.825Z,18.36
2018-08-16T04:03:09.813Z,18.28
2018-08-16T04:04:09.801Z,18.27
2018-08-16T04:05:09.792Z,18.28
2018-08-16T04:06:09.774Z,18.27
2018-08-16T04:07:09.765Z,18.39
2018-08-16T04:08:09.751Z,18.38
2018-08-16T04:09:09.738Z,18.45
2018-08-16T04:10:09.722Z,18.42
2018-08-16T04:11:09.709Z,18.42
2018-08-16T04:12:09.699Z,18.46
2018-08-16T04:13:09.686Z,18.56
2018-08-16T04:14:09.670Z,18.54
2018-08-16T04:15:09.657Z,18.56
2018-08-16T04:16:09.647Z,18.60
2018-08-16T04:17:09.633Z,18.63
2018-08-16T04:18:09.620Z,18.54
2018-08-16T04:19:09.608Z,18.52
2018-08-16T04:20:09.594Z,18.58
2018-08-16T04:21:09.584Z,18.60
2018-08-16T04:22:09.569Z,18.49
2018-08-16T04:23:09.559Z,18.52
2018-08-16T04:24:09.543Z,18.54
2018-08-16T04:25:09.533Z,18.43
2018-08-16T04:26:09.517Z,18.45
2018-08-16T04:27:09.508Z,18.45
2018-08-16T04:28:09.495Z,18.49
2018-08-16T04:29:09.538Z,18.48
2018-08-16T04:30:09.467Z,18.46
2018-08-16T04:31:09.466Z,18.46
2018-08-16T04:32:09.441Z,18.43
2018-08-16T04:33:09.427Z,18.46
2018-08-16T04:34:09.414Z,18.36
2018-08-16T04:35:09.494Z,18.38
2018-08-16T04:36:09.389Z,18.38
2018-08-16T04:37:09.375Z,18.30
2018-08-16T04:38:09.363Z,18.27
2018-08-16T04:39:09.351Z,18.31
2018-08-16T04:40:09.337Z,18.31
2018-08-16T04:41:09.328Z,18.34
2018-08-16T04:42:09.316Z,18.46
2018-08-16T04:43:09.299Z,18.42
2018-08-16T04:44:09.288Z,18.45
2018-08-16T04:45:09.273Z,18.49
2018-08-16T04:46:09.265Z,18.43
2018-08-16T04:47:09.250Z,18.46
2018-08-16T04:48:09.239Z,18.51
2018-08-16T04:49:09.230Z,18.52
2018-08-16T04:50:09.213Z,18.48
2018-08-16T04:51:09.197Z,18.54
2018-08-16T04:52:09.183Z,18.45
2018-08-16T04:53:09.170Z,18.12
2018-08-16T04:54:09.158Z,17.94
2018-08-16T04:55:09.149Z,17.81
2018-08-16T04:56:09.132Z,17.65
2018-08-16T04:57:09.119Z,17.49
2018-08-16T04:58:09.107Z,17.50
2018-08-16T04:59:09.095Z,17.43
2018-08-16T05:00:09.081Z,17.49
2018-08-16T05:01:09.066Z,17.47
2018-08-16T05:02:09.054Z,17.38
2018-08-16T05:03:09.041Z,17.45
2018-08-16T05:04:09.026Z,17.59
2018-08-16T05:05:09.023Z,17.62
2018-08-16T05:06:09.004Z,17.50
2018-08-16T05:07:08.988Z,17.59
2018-08-16T05:08:08.983Z,17.73
2018-08-16T05:09:08.964Z,17.87
2018-08-16T05:10:08.952Z,17.87
2018-08-16T05:11:08.956Z,18.02
2018-08-16T05:12:08.928Z,18.02
2018-08-16T05:13:08.916Z,18.06
2018-08-16T05:14:08.902Z,18.06
2018-08-16T05:15:08.893Z,18.15
2018-08-16T05:16:08.872Z,18.13
2018-08-16T05:17:08.900Z,18.21
2018-08-16T05:18:08.845Z,18.23
2018-08-16T05:19:08.832Z,18.23
2018-08-16T05:20:08.828Z,18.31
2018-08-16T05:21:08.807Z,18.36
2018-08-16T05:22:08.795Z,18.41
2018-08-16T05:23:08.784Z,18.45
2018-08-16T05:24:08.770Z,18.45
2018-08-16T05:25:08.755Z,18.46
2018-08-16T05:26:08.747Z,18.58
2018-08-16T05:27:08.735Z,18.58
2018-08-16T05:28:08.716Z,18.71
2018-08-16T05:29:08.717Z,18.74
2018-08-16T05:30:08.692Z,18.82
2018-08-16T05:31:08.680Z,18.85
2018-08-16T05:32:08.671Z,18.86
2018-08-16T05:33:08.663Z,18.89
2018-08-16T05:34:08.647Z,18.86
2018-08-16T05:35:08.633Z,18.97
2018-08-16T05:36:08.617Z,18.94
2018-08-16T05:37:08.608Z,19.05
2018-08-16T05:38:08.592Z,19.01
2018-08-16T05:39:08.583Z,19.12
2018-08-16T05:40:08.574Z,19.08
2018-08-16T05:41:08.559Z,19.09
2018-08-16T05:42:08.556Z,19.27
2018-08-16T05:43:08.678Z,19.37
2018-08-16T05:44:08.520Z,19.39
2018-08-16T05:45:08.511Z,19.41
2018-08-16T05:46:08.496Z,19.45
2018-08-16T05:47:08.486Z,19.52
2018-08-16T05:48:08.473Z,19.50
2018-08-16T05:49:08.469Z,19.63
2018-08-16T05:50:08.446Z,19.60
2018-08-16T05:51:08.437Z,19.70
2018-08-16T05:52:08.426Z,19.77
2018-08-16T05:53:08.413Z,19.87
2018-08-16T05:54:08.399Z,19.97
2018-08-16T05:55:08.388Z,19.96
2018-08-16T05:56:08.378Z,19.94
2018-08-16T05:57:08.364Z,19.94
2018-08-16T05:58:08.358Z,19.89
2018-08-16T05:59:08.341Z,19.84
2018-08-16T06:00:08.330Z,19.90
2018-08-16T06:01:08.316Z,19.89
2018-08-16T06:02:08.304Z,19.97
2018-08-16T06:03:08.295Z,20.12
2018-08-16T06:04:08.281Z,20.18
2018-08-16T06:05:08.274Z,20.12
2018-08-16T06:06:08.258Z,20.15
2018-08-16T06:07:08.246Z,20.15
2018-08-16T06:08:08.231Z,20.05
2018-08-16T06:09:08.223Z,20.14
2018-08-16T06:10:08.207Z,20.08
2018-08-16T06:11:08.200Z,20.17
2018-08-16T06:12:08.185Z,20.22
2018-08-16T06:13:08.263Z,20.41
2018-08-16T06:14:08.160Z,20.32
2018-08-16T06:15:08.151Z,20.46
2018-08-16T06:16:08.134Z,20.41
2018-08-16T06:17:08.125Z,20.37
2018-08-16T06:18:08.114Z,20.48
2018-08-16T06:19:08.101Z,20.53
2018-08-16T06:20:08.088Z,20.55
2018-08-16T06:21:08.080Z,20.55
2018-08-16T06:22:08.067Z,20.37
2018-08-16T06:23:08.054Z,20.32
2018-08-16T06:24:08.075Z,20.39
2018-08-16T06:25:08.045Z,20.42
2018-08-16T06:26:08.023Z,20.53
2018-08-16T06:27:08.009Z,20.50
2018-08-16T06:28:08.003Z,20.65
2018-08-16T06:29:07.989Z,20.60
2018-08-16T06:30:07.982Z,20.64
2018-08-16T06:31:08.032Z,20.68
2018-08-16T06:32:07.952Z,20.74
2018-08-16T06:33:07.947Z,20.75
2018-08-16T06:34:07.938Z,20.88
2018-08-16T06:35:07.916Z,20.93
2018-08-16T06:36:07.915Z,21.00
2018-08-16T06:37:07.894Z,20.92
2018-08-16T06:38:07.883Z,20.92
2018-08-16T06:39:07.873Z,21.03
2018-08-16T06:40:07.863Z,21.19
2018-08-16T06:41:07.851Z,21.35
2018-08-16T06:42:07.842Z,21.48
2018-08-16T06:43:07.826Z,21.53
2018-08-16T06:44:07.817Z,21.66
2018-08-16T06:45:07.808Z,21.78
2018-08-16T06:46:07.847Z,21.90
2018-08-16T06:47:07.784Z,21.88
2018-08-16T06:48:07.776Z,21.94
2018-08-16T06:49:07.765Z,22.01
2018-08-16T06:50:07.756Z,22.13
2018-08-16T06:51:07.746Z,22.21
2018-08-16T06:52:07.740Z,22.31
2018-08-16T06:53:07.723Z,22.44
2018-08-16T06:54:07.710Z,22.43
2018-08-16T06:55:07.724Z,22.23
2018-08-16T06:56:07.695Z,22.22
2018-08-16T06:57:07.684Z,22.36
2018-08-16T06:58:07.690Z,22.33
2018-08-16T06:59:07.662Z,22.27
2018-08-16T07:00:07.650Z,22.33
2018-08-16T07:01:07.648Z,22.48
2018-08-16T07:02:07.632Z,22.37
2018-08-16T07:03:07.624Z,22.36
2018-08-16T07:04:07.614Z,22.38
2018-08-16T07:05:07.605Z,22.36
2018-08-16T07:06:07.596Z,22.33
2018-08-16T07:07:07.579Z,22.23
2018-08-16T07:08:07.575Z,22.23
2018-08-16T07:09:07.563Z,22.22
2018-08-16T07:10:07.551Z,22.27
2018-08-16T07:11:07.543Z,22.19
2018-08-16T07:12:07.605Z,22.27
2018-08-16T07:13:07.522Z,22.34
2018-08-16T07:14:07.515Z,22.40
2018-08-16T07:15:07.506Z,22.48
2018-08-16T07:16:07.497Z,22.49
2018-08-16T07:17:07.485Z,22.52
2018-08-16T07:18:07.474Z,22.59
2018-08-16T07:19:07.467Z,22.62
2018-08-16T07:20:07.456Z,22.67
2018-08-16T07:21:07.449Z,22.64
2018-08-16T07:22:07.439Z,22.61
2018-08-16T07:23:07.431Z,22.62
2018-08-16T07:24:07.427Z,22.41
2018-08-16T07:25:07.420Z,22.38
2018-08-16T07:26:07.410Z,22.59
2018-08-16T07:27:07.401Z,22.64
2018-08-16T07:28:07.401Z,22.88
2018-08-16T07:29:07.390Z,23.01
2018-08-16T07:30:07.455Z,22.99
2018-08-16T07:31:07.378Z,23.18
2018-08-16T07:32:07.375Z,23.71
2018-08-16T07:33:07.366Z,23.97
2018-08-16T07:34:07.362Z,24.33
2018-08-16T07:35:07.356Z,24.79
2018-08-16T07:36:07.354Z,25.00
2018-08-16T07:37:07.349Z,25.26
2018-08-16T07:38:07.342Z,25.71
2018-08-16T07:39:07.339Z,26.23
2018-08-16T07:40:07.403Z,26.21
2018-08-16T07:41:07.333Z,26.28
2018-08-16T07:42:07.338Z,26.23
2018-08-16T07:43:07.330Z,26.33
2018-08-16T07:44:07.328Z,26.68
2018-08-16T07:45:07.323Z,26.76
2018-08-16T07:46:07.423Z,26.51
2018-08-16T07:47:07.321Z,26.65
2018-08-16T07:48:07.316Z,26.53
2018-08-16T07:49:07.327Z,25.86
2018-08-16T07:50:07.316Z,26.48
2018-08-16T07:51:07.335Z,27.00
2018-08-16T07:52:07.418Z,27.26
2018-08-16T07:53:07.314Z,27.64
2018-08-16T07:54:07.318Z,27.23
2018-08-16T07:55:07.310Z,27.45
2018-08-16T07:56:07.312Z,28.13
2018-08-16T07:57:07.364Z,28.35
2018-08-16T07:58:07.315Z,28.89
2018-08-16T07:59:07.316Z,28.79
2018-08-16T08:00:07.321Z,29.18
2018-08-16T08:01:07.320Z,29.37
2018-08-16T08:02:07.315Z,29.19
2018-08-16T08:03:07.314Z,29.29
2018-08-16T08:04:07.323Z,29.37
2018-08-16T08:05:07.317Z,29.56
2018-08-16T08:06:07.323Z,29.47
2018-08-16T08:07:07.342Z,29.61
2018-08-16T08:08:07.330Z,30.08
2018-08-16T08:09:07.488Z,30.39
2018-08-16T08:10:07.326Z,29.83
2018-08-16T08:11:07.330Z,29.80
2018-08-16T08:12:07.333Z,29.87
2018-08-16T08:13:07.338Z,30.30
2018-08-16T08:14:07.338Z,30.30
2018-08-16T08:15:07.339Z,30.33
2018-08-16T08:16:07.343Z,29.58
2018-08-16T08:17:07.344Z,29.98
2018-08-16T08:18:07.352Z,30.14
2018-08-16T08:19:07.352Z,30.03
2018-08-16T08:20:07.355Z,30.13
2018-08-16T08:21:07.357Z,30.65
2018-08-16T08:22:07.367Z,30.97
2018-08-16T08:23:07.368Z,30.97
2018-08-16T08:24:07.369Z,30.73
2018-08-16T08:25:07.373Z,31.07
2018-08-16T08:26:07.380Z,31.04
2018-08-16T08:27:07.382Z,30.60
2018-08-16T08:28:07.389Z,30.08
2018-08-16T08:29:07.389Z,29.41
2018-08-16T08:30:07.394Z,29.87
2018-08-16T08:31:07.403Z,30.10
2018-08-16T08:32:07.400Z,30.29
2018-08-16T08:33:07.413Z,30.73
2018-08-16T08:34:07.414Z,30.93
2018-08-16T08:35:07.419Z,30.83
2018-08-16T08:36:07.419Z,30.73
2018-08-16T08:37:07.428Z,31.05
2018-08-16T08:38:07.429Z,31.29
2018-08-16T08:39:07.440Z,30.32
2018-08-16T08:40:07.439Z,29.56
2018-08-16T08:41:07.444Z,29.24
2018-08-16T08:42:07.448Z,29.65
2018-08-16T08:43:07.457Z,30.52
2018-08-16T08:44:07.460Z,31.38
2018-08-16T08:45:07.464Z,31.94
2018-08-16T08:46:07.470Z,31.76
2018-08-16T08:47:07.477Z,31.32
2018-08-16T08:48:07.481Z,31.38
2018-08-16T08:49:07.488Z,31.75
2018-08-16T08:50:07.493Z,31.49
2018-08-16T08:51:07.501Z,30.90
2018-08-16T08:52:07.504Z,31.59
2018-08-16T08:53:07.509Z,30.40
2018-08-16T08:54:07.507Z,29.58
2018-08-16T08:55:07.514Z,30.30
2018-08-16T08:56:07.524Z,30.77
2018-08-16T08:57:07.527Z,29.91
2018-08-16T08:58:07.523Z,29.33
2018-08-16T08:59:07.531Z,28.96
2018-08-16T09:00:07.530Z,28.61
2018-08-16T09:01:07.535Z,29.25
2018-08-16T09:02:07.533Z,29.33
2018-08-16T09:03:07.541Z,29.12
2018-08-16T09:04:07.540Z,29.40
2018-08-16T09:05:07.542Z,29.27
2018-08-16T09:06:07.542Z,28.37
2018-08-16T09:07:07.546Z,28.61
2018-08-16T09:08:07.560Z,29.37
2018-08-16T09:09:07.549Z,29.22
2018-08-16T09:10:07.552Z,29.54
2018-08-16T09:11:07.557Z,29.18
2018-08-16T09:12:07.559Z,29.84
2018-08-16T09:13:07.554Z,30.02
2018-08-16T09:14:07.560Z,29.49
2018-08-16T09:15:07.553Z,28.81
2018-08-16T09:16:07.565Z,28.89
2018-08-16T09:17:07.579Z,28.50
2018-08-16T09:18:07.560Z,28.32
2018-08-16T09:19:07.558Z,27.68
2018-08-16T09:20:07.557Z,27.79
2018-08-16T09:21:07.559Z,28.65
2018-08-16T09:22:07.556Z,29.22
2018-08-16T09:23:07.564Z,29.24
2018-08-16T09:24:07.692Z,29.54
2018-08-16T09:25:07.551Z,29.52
2018-08-16T09:26:07.550Z,29.71
2018-08-16T09:27:07.548Z,30.14
2018-08-16T09:28:07.550Z,29.98
2018-08-16T09:29:07.554Z,30.03
2018-08-16T09:30:07.554Z,30.40
2018-08-16T09:31:07.582Z,30.95
2018-08-16T09:32:07.543Z,31.10
2018-08-16T09:33:07.547Z,31.61
2018-08-16T09:34:07.539Z,31.12
2018-08-16T09:35:07.540Z,31.63
2018-08-16T09:36:07.550Z,31.79
2018-08-16T09:37:07.541Z,31.82
2018-08-16T09:38:07.535Z,32.02
2018-08-16T09:39:07.539Z,32.20
2018-08-16T09:40:07.533Z,32.17
2018-08-16T09:41:07.534Z,31.86
2018-08-16T09:42:07.530Z,31.41
2018-08-16T09:43:07.532Z,31.75
2018-08-16T09:44:07.530Z,32.14
2018-08-16T09:45:07.549Z,32.43
2018-08-16T09:46:07.526Z,31.76
2018-08-16T09:47:07.527Z,30.28
2018-08-16T09:48:07.524Z,29.78
2018-08-16T09:49:07.526Z,30.52
2018-08-16T09:50:07.521Z,30.53
2018-08-16T09:51:07.533Z,31.26
2018-08-16T09:52:07.519Z,31.56
2018-08-16T09:53:07.524Z,32.21
2018-08-16T09:54:07.524Z,32.60
2018-08-16T09:55:07.515Z,32.92
2018-08-16T09:56:07.513Z,32.36
2018-08-16T09:57:07.514Z,32.42
2018-08-16T09:58:07.515Z,32.75
2018-08-16T09:59:07.508Z,32.72
2018-08-16T10:00:07.514Z,31.74
2018-08-16T10:01:07.510Z,30.32
2018-08-16T10:02:07.577Z,30.39
2018-08-16T10:03:07.500Z,29.73
2018-08-16T10:04:07.497Z,29.37
2018-08-16T10:05:07.503Z,29.54
2018-08-16T10:06:07.501Z,30.24
2018-08-16T10:07:07.492Z,30.99
2018-08-16T10:08:07.488Z,31.41
2018-08-16T10:09:07.486Z,31.54
2018-08-16T10:10:07.492Z,31.07
2018-08-16T10:11:07.478Z,30.62
2018-08-16T10:12:07.479Z,31.15
2018-08-16T10:13:07.476Z,31.12
2018-08-16T10:14:07.467Z,31.44
2018-08-16T10:15:07.466Z,30.99
2018-08-16T10:16:07.465Z,31.39
2018-08-16T10:17:07.457Z,30.88
2018-08-16T10:18:07.466Z,30.71
2018-08-16T10:19:07.455Z,29.77
2018-08-16T10:20:07.455Z,29.52
2018-08-16T10:21:07.444Z,29.58
2018-08-16T10:22:07.440Z,30.11
2018-08-16T10:23:07.438Z,29.91
2018-08-16T10:24:07.435Z,29.76
2018-08-16T10:25:07.433Z,30.05
2018-08-16T10:26:07.428Z,29.83
2018-08-16T10:27:07.511Z,29.96
2018-08-16T10:28:07.424Z,30.43
2018-08-16T10:29:07.416Z,30.85
2018-08-16T10:30:07.409Z,30.52
2018-08-16T10:31:07.405Z,30.46
2018-08-16T10:32:07.399Z,30.15
2018-08-16T10:33:07.400Z,29.62
2018-08-16T10:34:07.396Z,29.66
2018-08-16T10:35:07.387Z,30.07
2018-08-16T10:36:07.384Z,29.71
2018-08-16T10:37:07.404Z,29.54
2018-08-16T10:38:07.374Z,29.37
2018-08-16T10:39:07.373Z,29.62
2018-08-16T10:40:07.363Z,30.00
2018-08-16T10:41:07.363Z,30.35
2018-08-16T10:42:07.357Z,29.98
2018-08-16T10:43:07.362Z,29.63
2018-08-16T10:44:07.353Z,29.68
2018-08-16T10:45:07.349Z,29.78
2018-08-16T10:46:07.337Z,30.05
2018-08-16T10:47:07.334Z,30.07
2018-08-16T10:48:07.338Z,30.18
2018-08-16T10:49:07.328Z,30.26
2018-08-16T10:50:07.323Z,29.80
2018-08-16T10:51:07.317Z,29.55
2018-08-16T10:52:07.316Z,29.78
2018-08-16T10:53:07.309Z,30.13
2018-08-16T10:54:07.312Z,30.43
2018-08-16T10:55:07.298Z,29.74
2018-08-16T10:56:07.293Z,29.66
2018-08-16T10:57:07.293Z,28.83
2018-08-16T10:58:07.287Z,28.52
2018-08-16T10:59:07.288Z,28.87
2018-08-16T11:00:07.278Z,29.25
2018-08-16T11:01:07.272Z,29.54
2018-08-16T11:02:07.270Z,29.66
2018-08-16T11:03:07.267Z,29.77
2018-08-16T11:04:07.264Z,30.03
2018-08-16T11:05:07.252Z,30.40
2018-08-16T11:06:07.248Z,30.33
2018-08-16T11:07:07.242Z,29.73
2018-08-16T11:08:07.236Z,29.74
2018-08-16T11:09:07.234Z,29.84
2018-08-16T11:10:07.227Z,30.15
2018-08-16T11:11:07.222Z,30.37
2018-08-16T11:12:07.220Z,30.05
2018-08-16T11:13:07.222Z,29.03
2018-08-16T11:14:07.207Z,29.04
2018-08-16T11:15:07.202Z,29.19
2018-08-16T11:16:07.200Z,29.37
2018-08-16T11:17:07.190Z,29.54
2018-08-16T11:18:07.187Z,29.19
2018-08-16T11:19:07.188Z,29.33
2018-08-16T11:20:07.177Z,29.22
2018-08-16T11:21:07.172Z,29.55
2018-08-16T11:22:07.180Z,29.25
2018-08-16T11:23:07.167Z,29.28
2018-08-16T11:24:07.162Z,29.54
2018-08-16T11:25:07.152Z,29.77
2018-08-16T11:26:07.145Z,30.03
2018-08-16T11:27:07.144Z,29.80
2018-08-16T11:28:07.136Z,29.87
2018-08-16T11:29:07.130Z,29.96
2018-08-16T11:30:07.127Z,29.86
2018-08-16T11:31:07.137Z,30.08
2018-08-16T11:32:07.121Z,29.98
2018-08-16T11:33:07.120Z,29.98
2018-08-16T11:34:07.113Z,29.49
2018-08-16T11:35:07.216Z,29.41
2018-08-16T11:36:07.099Z,29.83
2018-08-16T11:37:07.099Z,29.98
2018-08-16T11:38:07.089Z,30.22
2018-08-16T11:39:07.084Z,30.32
2018-08-16T11:40:07.076Z,30.36
2018-08-16T11:41:07.071Z,30.60
2018-08-16T11:42:07.066Z,30.90
2018-08-16T11:43:07.060Z,30.83
2018-08-16T11:44:07.056Z,30.88
2018-08-16T11:45:07.061Z,30.89
2018-08-16T11:46:07.051Z,31.04
2018-08-16T11:47:07.040Z,31.04
2018-08-16T11:48:07.038Z,31.15
2018-08-16T11:49:07.034Z,31.20
2018-08-16T11:50:07.034Z,30.99
2018-08-16T11:51:07.023Z,30.71
2018-08-16T11:52:07.019Z,30.26
2018-08-16T11:53:07.015Z,30.67
2018-08-16T11:54:07.016Z,30.85
2018-08-16T11:55:07.020Z,30.80
2018-08-16T11:56:06.997Z,30.05
2018-08-16T11:57:07.005Z,30.18
2018-08-16T11:58:06.988Z,30.39
2018-08-16T11:59:06.984Z,30.52
2018-08-16T12:00:06.983Z,30.83
2018-08-16T12:01:06.975Z,30.83
2018-08-16T12:02:07.044Z,31.01
2018-08-16T12:03:06.963Z,31.34
2018-08-16T12:04:06.960Z,31.45
2018-08-16T12:05:06.955Z,31.75
2018-08-16T12:06:07.009Z,32.17
2018-08-16T12:07:06.948Z,31.82
2018-08-16T12:08:06.944Z,31.27
2018-08-16T12:09:06.948Z,31.51
2018-08-16T12:10:06.935Z,31.68
2018-08-16T12:11:06.932Z,31.38
2018-08-16T12:12:06.931Z,31.24
2018-08-16T12:13:06.932Z,31.24
2018-08-16T12:14:06.920Z,31.11
2018-08-16T12:15:06.932Z,31.10
2018-08-16T12:16:06.918Z,30.96
2018-08-16T12:17:06.901Z,29.84
2018-08-16T12:18:06.902Z,29.76
2018-08-16T12:19:06.896Z,29.81
2018-08-16T12:20:06.893Z,29.77
2018-08-16T12:21:07.002Z,30.10
2018-08-16T12:22:06.882Z,30.45
2018-08-16T12:23:06.876Z,30.73
2018-08-16T12:24:06.874Z,30.52
2018-08-16T12:25:06.868Z,30.85
2018-08-16T12:26:06.861Z,30.65
2018-08-16T12:27:06.864Z,30.59
2018-08-16T12:28:06.852Z,30.85
2018-08-16T12:29:06.884Z,30.97
2018-08-16T12:30:06.846Z,30.95
2018-08-16T12:31:06.843Z,30.67
2018-08-16T12:32:06.838Z,30.85
2018-08-16T12:33:06.835Z,31.10
2018-08-16T12:34:06.824Z,31.14
2018-08-16T12:35:06.824Z,30.88
2018-08-16T12:36:06.827Z,30.80
2018-08-16T12:37:06.811Z,31.01
2018-08-16T12:38:06.806Z,30.65
2018-08-16T12:39:06.801Z,30.33
2018-08-16T12:40:06.798Z,30.65
2018-08-16T12:41:06.881Z,30.82
2018-08-16T12:42:06.810Z,31.02
2018-08-16T12:43:06.784Z,31.02
2018-08-16T12:44:06.782Z,30.68
2018-08-16T12:45:06.778Z,30.95
2018-08-16T12:46:06.822Z,31.02
2018-08-16T12:47:06.765Z,31.12
2018-08-16T12:48:06.769Z,31.44
2018-08-16T12:49:06.756Z,31.42
2018-08-16T12:50:06.753Z,31.33
2018-08-16T12:51:06.747Z,31.42
2018-08-16T12:52:06.750Z,31.42